createdAt,value
2022-11-28T00:01:38.773Z,10.65
2022-11-28T00:04:07.243Z,10.88
2022-11-28T00:06:37.947Z,10.60
2022-11-28T00:09:06.133Z,10.80
2022-11-28T00:11:33.079Z,10.90
2022-11-28T00:14:00.246Z,10.07
2022-11-28T00:16:27.532Z,11.73
2022-11-28T00:18:55.474Z,9.57
2022-11-28T00:21:22.900Z,11.63
2022-11-28T00:23:50.600Z,11.27
2022-11-28T00:26:22.430Z,10.88
2022-11-28T00:28:49.384Z,10.77
2022-11-28T00:31:22.483Z,10.47
2022-11-28T00:33:58.426Z,10.65
2022-11-28T00:36:27.035Z,10.85
2022-11-28T00:38:54.846Z,11.32
2022-11-28T00:41:24.962Z,12.15
2022-11-28T00:43:53.412Z,12.17
2022-11-28T00:46:21.732Z,12.30
2022-11-28T00:48:50.075Z,13.00
2022-11-28T00:51:20.290Z,11.77
2022-11-28T00:53:50.150Z,12.52
2022-11-28T00:56:24.221Z,12.10
2022-11-28T00:58:51.658Z,11.25
2022-11-28T01:01:28.599Z,11.32
2022-11-28T01:03:57.832Z,10.63
2022-11-28T01:06:40.697Z,12.50
2022-11-28T01:09:19.610Z,12.13
2022-11-28T01:11:49.493Z,11.32
2022-11-28T01:14:19.409Z,10.93
2022-11-28T01:16:46.655Z,11.25
2022-11-28T01:19:14.337Z,10.50
2022-11-28T01:21:42.329Z,11.33
2022-11-28T01:24:11.814Z,10.55
2022-11-28T01:26:44.934Z,10.52
2022-11-28T01:29:12.084Z,11.45
2022-11-28T01:31:39.925Z,10.60
2022-11-28T01:34:09.358Z,9.67
2022-11-28T01:36:36.960Z,10.50
2022-11-28T01:39:12.504Z,11.00
2022-11-28T01:41:40.730Z,9.32
2022-11-28T01:44:27.917Z,10.07
2022-11-28T01:46:55.168Z,11.03
2022-11-28T01:49:27.418Z,10.65
2022-11-28T01:52:04.044Z,10.50
2022-11-28T01:54:34.683Z,10.38
2022-11-28T01:57:10.583Z,9.88
2022-11-28T01:59:47.874Z,9.23
2022-11-28T02:02:32.937Z,9.75
2022-11-28T02:05:00.941Z,8.10
2022-11-28T02:07:28.343Z,9.45
2022-11-28T02:09:58.294Z,9.65
2022-11-28T02:12:40.468Z,10.00
2022-11-28T02:15:07.779Z,10.07
2022-11-28T02:17:41.352Z,9.15
2022-11-28T02:20:34.693Z,10.10
2022-11-28T02:23:11.004Z,9.10
2022-11-28T02:26:07.223Z,9.03
2022-11-28T02:29:05.220Z,10.07
2022-11-28T02:32:13.199Z,10.68
2022-11-28T02:34:55.487Z,9.25
2022-11-28T02:37:45.461Z,10.60
2022-11-28T02:40:29.038Z,10.60
2022-11-28T02:43:10.836Z,11.02
2022-11-28T02:46:15.129Z,10.60
2022-11-28T02:49:14.879Z,10.88
2022-11-28T02:51:54.128Z,11.23
2022-11-28T02:54:23.559Z,9.83
2022-11-28T02:56:53.521Z,10.57
2022-11-28T02:59:48.883Z,9.88
2022-11-28T03:02:42.931Z,10.52
2022-11-28T03:05:25.135Z,10.43
2022-11-28T03:08:06.782Z,10.13
2022-11-28T03:11:14.128Z,9.63
2022-11-28T03:13:57.628Z,9.85
2022-11-28T03:16:31.547Z,10.60
2022-11-28T03:19:14.870Z,11.38
2022-11-28T03:22:08.120Z,10.30
2022-11-28T03:24:46.787Z,11.02
2022-11-28T03:27:34.969Z,10.93
2022-11-28T03:30:09.908Z,12.65
2022-11-28T03:32:39.721Z,11.25
2022-11-28T03:35:11.464Z,11.30
2022-11-28T03:37:44.586Z,12.10
2022-11-28T03:40:17.362Z,10.73
2022-11-28T03:42:51.445Z,11.93
2022-11-28T03:45:28.646Z,11.07
2022-11-28T03:48:06.974Z,11.53
2022-11-28T03:50:44.614Z,10.77
2022-11-28T03:53:46.843Z,11.85
2022-11-28T03:56:21.296Z,10.82
2022-11-28T03:58:58.426Z,10.18
2022-11-28T04:01:36.902Z,10.57
2022-11-28T04:04:10.168Z,10.65
2022-11-28T04:06:56.776Z,10.98
2022-11-28T04:09:54.822Z,10.38
2022-11-28T04:12:47.934Z,10.13
2022-11-28T04:15:33.885Z,10.60
2022-11-28T04:18:27.083Z,10.07
2022-11-28T04:21:03.452Z,10.60
2022-11-28T04:23:33.988Z,10.15
2022-11-28T04:26:05.745Z,10.73
2022-11-28T04:28:34.793Z,9.97
2022-11-28T04:31:06.100Z,9.27
2022-11-28T04:33:38.273Z,10.35
2022-11-28T04:36:07.200Z,9.48
2022-11-28T04:38:35.517Z,10.13
2022-11-28T04:41:30.799Z,9.83
2022-11-28T04:44:16.977Z,9.77
2022-11-28T04:46:50.439Z,11.32
2022-11-28T04:49:17.945Z,10.68
2022-11-28T04:51:59.507Z,10.73
2022-11-28T04:55:04.520Z,11.90
2022-11-28T04:57:46.211Z,11.32
2022-11-28T05:00:18.159Z,12.40
2022-11-28T05:02:49.728Z,11.60
2022-11-28T05:05:20.536Z,12.77
2022-11-28T05:07:47.657Z,11.87
2022-11-28T05:10:20.575Z,11.48
2022-11-28T05:12:47.944Z,11.77
2022-11-28T05:15:19.291Z,12.05
2022-11-28T05:17:47.453Z,11.93
2022-11-28T05:20:15.192Z,12.70
2022-11-28T05:22:42.501Z,12.95
2022-11-28T05:25:09.889Z,13.45
2022-11-28T05:27:37.404Z,14.10
2022-11-28T05:30:08.260Z,12.82
2022-11-28T05:32:38.584Z,13.30
2022-11-28T05:35:05.773Z,12.90
2022-11-28T05:37:33.011Z,14.02
2022-11-28T05:40:00.064Z,14.32
2022-11-28T05:42:28.518Z,14.10
2022-11-28T05:44:56.136Z,13.57
2022-11-28T05:47:24.182Z,12.57
2022-11-28T05:49:51.152Z,13.35
2022-11-28T05:52:18.187Z,13.85
2022-11-28T05:54:48.254Z,15.32
2022-11-28T05:57:15.224Z,14.47
2022-11-28T05:59:42.324Z,14.57
2022-11-28T06:02:09.765Z,14.20
2022-11-28T06:04:36.980Z,15.40
2022-11-28T06:07:03.947Z,14.82
2022-11-28T06:09:31.329Z,14.33
2022-11-28T06:12:01.165Z,14.10
2022-11-28T06:14:28.533Z,15.35
2022-11-28T06:16:58.604Z,16.23
2022-11-28T06:19:38.382Z,15.43
2022-11-28T06:22:08.071Z,15.50
2022-11-28T06:24:35.152Z,16.35
2022-11-28T06:27:02.636Z,16.75
2022-11-28T06:29:29.894Z,15.43
2022-11-28T06:31:57.341Z,16.23
2022-11-28T06:34:25.156Z,16.63
2022-11-28T06:36:52.481Z,17.35
2022-11-28T06:39:19.643Z,16.98
2022-11-28T09:31:47.858Z,35.38
2022-11-28T09:34:15.114Z,35.40
2022-11-28T09:36:42.003Z,35.83
2022-11-28T09:39:09.364Z,38.63
2022-11-28T09:42:05.103Z,38.95
2022-11-28T09:44:47.447Z,35.38
2022-11-28T09:47:25.309Z,38.10
2022-11-28T09:49:58.300Z,36.20
2022-11-28T09:52:28.458Z,37.95
2022-11-28T09:55:01.341Z,34.80
2022-11-28T09:57:49.789Z,34.78
2022-11-28T10:00:31.797Z,32.47
2022-11-28T10:03:04.436Z,32.77
2022-11-28T10:05:42.193Z,33.60
2022-11-28T10:08:30.720Z,31.15
2022-11-28T10:11:30.924Z,29.40
2022-11-28T10:14:19.767Z,29.70
2022-11-28T10:16:58.725Z,25.73
2022-11-28T10:19:57.221Z,25.15
2022-11-28T10:22:40.615Z,24.98
2022-11-28T10:25:32.022Z,25.15
2022-11-28T10:27:59.246Z,23.88
2022-11-28T10:30:29.133Z,24.40
2022-11-28T10:32:58.818Z,24.65
2022-11-28T10:35:49.083Z,23.42
2022-11-28T10:38:17.308Z,19.45
2022-11-28T10:40:51.266Z,23.40
2022-11-28T10:43:35.992Z,22.13
2022-11-28T10:46:24.320Z,22.52
2022-11-28T10:49:07.406Z,24.60
2022-11-28T10:51:50.234Z,23.75
2022-11-28T10:54:26.030Z,24.20
2022-11-28T10:57:20.023Z,22.47
2022-11-28T11:00:09.221Z,23.13
2022-11-28T11:02:46.619Z,23.35
2022-11-28T11:05:19.358Z,23.35
2022-11-28T11:07:51.583Z,20.65
2022-11-28T11:10:31.625Z,20.23
2022-11-28T11:12:59.482Z,24.42
2022-11-28T11:15:32.448Z,23.92
2022-11-28T11:18:21.784Z,21.17
2022-11-28T11:20:48.700Z,23.15
2022-11-28T11:23:21.361Z,22.93
2022-11-28T11:25:54.680Z,22.70
2022-11-28T11:28:42.935Z,23.60
2022-11-28T11:31:19.127Z,24.08
2022-11-28T11:33:46.496Z,20.70
2022-11-28T11:36:29.409Z,20.87
2022-11-28T11:39:07.494Z,22.13
2022-11-28T11:41:34.625Z,21.83
2022-11-28T11:44:25.411Z,20.55
2022-11-28T11:46:58.265Z,23.38
2022-11-28T11:49:49.205Z,20.47
2022-11-28T11:52:22.875Z,24.05
2022-11-28T11:55:25.470Z,23.75
2022-11-28T11:57:55.103Z,22.45
2022-11-28T12:00:27.756Z,23.35
2022-11-28T12:03:06.829Z,23.80
2022-11-28T12:06:13.253Z,26.00
2022-11-28T12:09:14.129Z,23.40
2022-11-28T12:11:47.864Z,23.95
2022-11-28T12:14:33.709Z,25.55
2022-11-28T12:17:47.892Z,25.70
2022-11-28T12:20:38.443Z,27.13
2022-11-28T12:23:18.692Z,26.75
2022-11-28T12:26:15.665Z,24.85
2022-11-28T12:28:51.932Z,22.25
2022-11-28T12:31:22.995Z,22.97
2022-11-28T12:34:08.131Z,25.48
2022-11-28T12:36:43.869Z,26.00
2022-11-28T12:39:38.831Z,25.73
2022-11-28T12:42:15.675Z,27.05
2022-11-28T12:45:07.327Z,27.23
2022-11-28T12:47:49.589Z,25.27
2022-11-28T12:50:28.706Z,24.08
2022-11-28T12:53:24.615Z,23.90
2022-11-28T12:56:17.379Z,24.52
2022-11-28T12:58:57.699Z,29.13
2022-11-28T13:02:06.663Z,42.13
2022-11-28T13:05:05.312Z,28.58
2022-11-28T13:08:05.080Z,27.65
2022-11-28T13:10:52.464Z,27.40
2022-11-28T13:13:33.087Z,25.53
2022-11-28T13:16:13.466Z,27.50
2022-11-28T13:18:46.320Z,27.55
2022-11-28T13:21:32.318Z,28.55
2022-11-28T13:24:11.050Z,28.10
2022-11-28T13:27:04.762Z,27.53
2022-11-28T13:29:53.427Z,23.48
2022-11-28T13:32:41.653Z,24.75
2022-11-28T13:35:15.933Z,25.08
2022-11-28T13:41:06.287Z,23.70
2022-11-28T13:43:53.536Z,23.25
2022-11-28T13:46:21.526Z,24.60
2022-11-28T13:51:40.172Z,26.40
2022-11-28T13:54:19.727Z,26.23
2022-11-28T13:56:49.419Z,25.73
2022-11-28T13:59:19.564Z,25.25
2022-11-28T14:01:51.791Z,25.42
2022-11-28T14:04:19.595Z,26.42
2022-11-28T14:06:48.505Z,27.17
2022-11-28T14:09:16.927Z,26.98
2022-11-28T14:12:12.243Z,27.20
2022-11-28T14:15:07.501Z,26.50
2022-11-28T14:17:59.810Z,25.80
2022-11-28T14:20:29.634Z,25.67
2022-11-28T14:23:23.474Z,25.35
2022-11-28T14:25:53.310Z,25.75
2022-11-28T14:28:37.725Z,26.65
2022-11-28T14:31:33.236Z,26.13
2022-11-28T14:34:04.730Z,26.87
2022-11-28T14:36:43.167Z,25.17
2022-11-28T14:39:15.370Z,26.35
2022-11-28T14:42:05.346Z,25.92
2022-11-28T14:44:50.808Z,25.88
2022-11-28T14:47:28.164Z,26.07
2022-11-28T14:50:07.858Z,29.27
2022-11-28T14:52:41.290Z,27.63
2022-11-28T14:55:13.129Z,27.85
2022-11-28T14:57:57.933Z,28.92
2022-11-28T15:00:47.962Z,27.27
2022-11-28T15:03:36.575Z,26.98
2022-11-28T15:06:13.387Z,29.08
2022-11-28T15:08:59.144Z,27.30
2022-11-28T15:11:59.656Z,30.15
2022-11-28T15:14:29.044Z,29.07
2022-11-28T15:17:01.380Z,30.83
2022-11-28T15:19:40.562Z,30.05
2022-11-28T15:22:31.985Z,30.20
2022-11-28T15:24:59.929Z,31.00
2022-11-28T15:27:28.821Z,29.60
2022-11-28T15:30:00.722Z,31.63
2022-11-28T15:32:33.027Z,31.27
2022-11-28T15:35:09.226Z,32.53
2022-11-28T15:37:45.766Z,28.00
2022-11-28T15:40:21.787Z,29.77
2022-11-28T15:42:49.856Z,29.25
2022-11-28T15:45:30.009Z,29.67
2022-11-28T15:47:57.941Z,28.48
2022-11-28T15:50:30.043Z,28.75
2022-11-28T15:52:58.487Z,29.70
2022-11-28T15:55:30.223Z,28.75
2022-11-28T15:58:21.856Z,28.25
2022-11-28T16:01:12.220Z,27.55
2022-11-28T16:04:04.087Z,26.48
2022-11-28T16:06:36.826Z,24.93
2022-11-28T16:09:27.298Z,29.80
2022-11-28T16:11:55.086Z,27.27
2022-11-28T16:14:34.986Z,27.35
2022-11-28T16:17:08.749Z,28.20
2022-11-28T16:19:38.509Z,36.77
2022-11-28T16:22:12.762Z,39.58
2022-11-28T16:24:57.558Z,43.05
2022-11-28T16:27:38.911Z,37.50
2022-11-28T16:30:25.444Z,32.50
2022-11-28T16:32:57.167Z,41.27
2022-11-28T16:35:42.504Z,45.78
2022-11-28T16:38:23.457Z,38.60
2022-11-28T16:40:53.518Z,34.70
2022-11-28T16:43:33.284Z,43.58
2022-11-28T16:46:04.820Z,43.77
2022-11-28T16:48:49.581Z,42.42
2022-11-28T16:52:12.756Z,34.10
2022-11-28T16:54:40.442Z,37.03
2022-11-28T16:57:11.279Z,32.53
2022-11-28T16:59:42.634Z,32.33
2022-11-28T17:02:17.095Z,31.27
2022-11-28T17:04:45.722Z,31.27
2022-11-28T17:07:16.571Z,27.45
2022-11-28T17:09:46.308Z,28.50
2022-11-28T17:12:39.237Z,28.53
2022-11-28T17:15:12.814Z,28.45
2022-11-28T17:17:40.566Z,29.48
2022-11-28T17:20:08.786Z,28.30
2022-11-28T17:22:43.497Z,26.63
2022-11-28T17:25:25.193Z,30.17
2022-11-28T17:27:53.665Z,28.65
2022-11-28T17:30:20.718Z,28.88
2022-11-28T17:32:52.624Z,30.35
2022-11-28T17:35:36.404Z,29.83
2022-11-28T17:38:10.436Z,30.77
2022-11-28T17:40:40.644Z,31.13
2022-11-28T17:43:14.764Z,29.95
2022-11-28T17:45:43.283Z,31.50
2022-11-28T17:48:13.779Z,30.90
2022-11-28T17:50:43.977Z,28.27
2022-11-28T17:53:15.658Z,26.30
2022-11-28T17:55:45.760Z,28.95
2022-11-28T17:58:22.610Z,26.90
2022-11-28T18:00:53.982Z,27.73
2022-11-28T18:03:26.048Z,26.70
2022-11-28T18:05:53.846Z,27.63
2022-11-28T18:08:23.339Z,27.63
2022-11-28T18:11:02.709Z,27.38
2022-11-28T18:13:30.182Z,29.55
2022-11-28T18:15:58.613Z,27.63
2022-11-28T18:18:27.687Z,27.13
2022-11-28T18:20:55.207Z,26.98
2022-11-28T18:23:22.909Z,27.52
2022-11-28T18:25:50.643Z,27.25
2022-11-28T18:28:19.301Z,25.70
2022-11-28T18:30:48.660Z,24.35
2022-11-28T18:33:18.288Z,24.90
2022-11-28T18:35:45.629Z,27.17
2022-11-28T18:38:17.031Z,27.50
2022-11-28T18:40:46.169Z,27.73
2022-11-28T18:43:21.662Z,26.65
2022-11-28T18:45:57.270Z,26.88
2022-11-28T18:48:29.681Z,27.55
2022-11-28T18:51:00.589Z,28.65
2022-11-28T18:53:34.531Z,29.47
2022-11-28T18:56:03.743Z,31.33
2022-11-28T18:58:37.396Z,29.67
2022-11-28T19:01:15.136Z,36.22
2022-11-28T19:03:47.184Z,34.13
2022-11-28T19:06:21.060Z,35.00
2022-11-28T19:08:57.975Z,33.75
2022-11-28T19:11:45.078Z,31.65
2022-11-28T19:14:19.522Z,34.28
2022-11-28T19:16:53.762Z,33.47
2022-11-28T19:19:21.786Z,37.77
2022-11-28T19:21:52.641Z,36.00
2022-11-28T19:24:30.303Z,32.65
2022-11-28T19:26:59.421Z,34.60
2022-11-28T19:29:37.242Z,32.75
2022-11-28T19:32:05.186Z,33.10
2022-11-28T19:34:32.420Z,33.80
2022-11-28T19:37:05.913Z,33.45
2022-11-28T19:39:34.106Z,33.83
2022-11-28T19:42:04.684Z,32.60
2022-11-28T19:44:32.686Z,34.97
2022-11-28T19:47:01.278Z,34.28
2022-11-28T19:49:34.087Z,33.45
2022-11-28T19:52:05.148Z,36.60
2022-11-28T19:54:35.976Z,34.58
2022-11-28T19:57:04.711Z,35.23
2022-11-28T19:59:35.301Z,37.13
2022-11-28T20:02:06.036Z,35.30
2022-11-28T20:04:58.150Z,37.95
2022-11-28T20:07:34.359Z,34.60
2022-11-28T20:10:04.997Z,33.03
2022-11-28T20:12:39.149Z,36.20
2022-11-28T20:15:11.485Z,34.92
2022-11-28T20:17:42.881Z,36.35
2022-11-28T20:20:12.403Z,35.17
2022-11-28T20:22:42.119Z,34.27
2022-11-28T20:25:16.567Z,35.83
2022-11-28T20:27:48.350Z,34.63
2022-11-28T20:33:04.284Z,34.20
2022-11-28T20:35:31.704Z,33.63
2022-11-28T20:37:59.426Z,34.13
2022-11-28T20:40:26.706Z,36.08
2022-11-28T20:42:53.734Z,35.30
2022-11-28T20:45:20.818Z,40.67
2022-11-28T20:47:49.960Z,35.60
2022-11-28T20:50:17.417Z,33.58
2022-11-28T20:52:44.507Z,36.03
2022-11-28T20:55:11.723Z,35.63
2022-11-28T20:57:38.618Z,32.72
2022-11-28T21:00:06.441Z,36.13
2022-11-28T21:03:09.858Z,34.50
2022-11-28T21:06:01.026Z,33.47
2022-11-28T21:08:51.275Z,31.30
2022-11-28T21:22:32.371Z,38.70
2022-11-28T21:29:17.484Z,38.90
2022-11-28T21:31:45.392Z,40.17
2022-11-28T21:34:17.031Z,36.83
2022-11-28T21:36:46.061Z,42.40
2022-11-28T21:39:20.149Z,41.85
2022-11-28T21:41:47.817Z,42.42
2022-11-28T21:44:15.019Z,37.60
2022-11-28T21:46:42.960Z,49.15
2022-11-28T21:49:10.118Z,43.72
2022-11-28T21:51:39.910Z,41.08
2022-11-28T21:54:07.508Z,42.55
2022-11-28T21:56:34.839Z,39.17
2022-11-28T21:59:04.823Z,40.08
2022-11-28T22:01:31.942Z,39.67
2022-11-28T22:04:02.707Z,44.05
2022-11-28T22:06:31.501Z,47.80
2022-11-28T22:09:07.316Z,42.50
2022-11-28T22:11:36.331Z,35.72
2022-11-28T22:14:03.798Z,35.25
2022-11-28T22:16:31.196Z,35.25
2022-11-28T22:19:02.317Z,34.13
2022-11-28T22:24:16.998Z,32.47
2022-11-28T22:26:44.695Z,38.47
2022-11-28T22:29:12.900Z,30.17
2022-11-28T22:31:40.375Z,32.78
2022-11-28T22:34:09.534Z,29.90
2022-11-28T22:36:37.580Z,29.60
2022-11-28T22:39:04.818Z,39.20
2022-11-28T22:41:31.789Z,32.90
2022-11-28T22:44:00.825Z,32.05
2022-11-28T22:46:29.248Z,31.07
2022-11-28T22:49:00.386Z,32.95
2022-11-28T22:51:28.800Z,30.83
2022-11-28T22:53:57.844Z,29.70
2022-11-28T22:56:27.310Z,30.95
2022-11-28T22:58:54.329Z,28.60
2022-11-28T23:01:24.395Z,28.15
2022-11-28T23:03:52.048Z,27.75
2022-11-28T23:06:25.128Z,28.80
2022-11-28T23:08:55.914Z,28.67
2022-11-28T23:11:28.247Z,26.87
2022-11-28T23:13:55.782Z,27.67
2022-11-28T23:16:31.743Z,27.50
2022-11-28T23:19:01.770Z,27.05
2022-11-28T23:21:32.757Z,24.08
2022-11-28T23:23:59.583Z,24.63
2022-11-28T23:26:29.305Z,25.20
2022-11-28T23:28:58.841Z,23.17
2022-11-28T23:31:29.953Z,22.05
2022-11-28T23:33:57.788Z,26.80
2022-11-28T23:36:27.504Z,21.80
2022-11-28T23:38:59.519Z,22.92
2022-11-28T23:41:28.131Z,23.38
2022-11-28T23:43:55.449Z,18.35
2022-11-28T23:46:23.635Z,20.40
2022-11-28T23:48:51.134Z,19.27
2022-11-28T23:51:19.641Z,20.15
2022-11-28T23:53:46.562Z,21.85
2022-11-28T23:56:17.544Z,21.88
2022-11-28T23:58:44.909Z,20.77
